Time;durP1;ratioP1;P1;durP2;ratioP2;P2;SDS_P1;SDS_P2;PMS_P1;PMS_P2;Temp;Humidity;BMP_temperature;BMP_pressure;BME280_temperature;BME280_humidity;BME280_pressure;Samples;Min_cycle;Max_cycle;Signal;HPM_P1;HPM_P2
2021/09/11 00:01:14;;;;;;;16.80;8.30;;;;;;;14.66;92.08;98040.69;5011369;28;20501;-75
2021/09/11 00:03:40;;;;;;;10.32;8.32;;;;;;;14.57;92.52;98037.06;5011447;28;20041;-76
2021/09/11 00:06:05;;;;;;;10.35;8.55;;;;;;;14.71;90.99;98048.78;4991892;28;20018;-74
2021/09/11 00:08:31;;;;;;;10.68;7.95;;;;;;;14.65;91.79;98039.88;4993690;28;20038;-74
2021/09/11 00:10:56;;;;;;;13.30;8.50;;;;;;;14.54;92.50;98033.03;4993584;28;20025;-76
2021/09/11 00:13:22;;;;;;;12.35;9.18;;;;;;;14.44;93.28;98034.13;5011165;28;20391;-76
2021/09/11 00:15:49;;;;;;;16.20;9.48;;;;;;;14.44;93.47;98028.63;5011260;28;20391;-73
2021/09/11 00:18:15;;;;;;;13.30;8.77;;;;;;;14.33;94.15;98023.72;4993346;28;20502;-74
2021/09/11 00:20:41;;;;;;;11.70;8.52;;;;;;;14.29;94.78;98029.00;4998994;28;20413;-74
2021/09/11 00:23:09;;;;;;;13.60;9.32;;;;;;;14.37;94.26;98033.78;5003994;28;20095;-73
2021/09/11 00:25:35;;;;;;;12.73;8.75;;;;;;;14.37;94.08;98036.53;5026661;28;20022;-74
2021/09/11 00:28:00;;;;;;;9.82;8.00;;;;;;;14.55;93.23;98040.16;5031223;28;20112;-74
2021/09/11 00:30:26;;;;;;;16.88;9.25;;;;;;;14.57;92.91;98037.88;5013404;28;20021;-74
2021/09/11 00:32:51;;;;;;;13.07;8.52;;;;;;;14.49;93.27;98030.44;5013216;28;20120;-74
2021/09/11 00:35:18;;;;;;;14.40;9.25;;;;;;;14.40;93.71;98037.84;5030668;28;20029;-73
2021/09/11 00:37:44;;;;;;;12.15;7.90;;;;;;;14.30;94.28;98033.41;5030564;28;20064;-74
2021/09/11 00:40:12;;;;;;;13.48;9.63;;;;;;;14.23;94.78;98034.97;5004325;28;20037;-74
2021/09/11 00:42:40;;;;;;;19.17;9.10;;;;;;;14.32;94.42;98035.81;5004081;28;20069;-74
2021/09/11 00:45:06;;;;;;;12.30;7.28;;;;;;;14.51;92.95;98030.91;5030711;28;20029;-74
2021/09/11 00:47:31;;;;;;;11.10;8.32;;;;;;;14.25;94.17;98035.50;5031174;28;20080;-75
2021/09/11 00:49:57;;;;;;;13.60;7.97;;;;;;;14.23;94.49;98032.22;5034503;28;20030;-75
2021/09/11 00:52:22;;;;;;;13.77;8.60;;;;;;;14.23;94.52;98033.03;5032828;28;20033;-74
2021/09/11 00:54:49;;;;;;;13.48;8.27;;;;;;;14.15;94.82;98024.75;5031097;28;20356;-74
2021/09/11 00:57:15;;;;;;;11.80;8.80;;;;;;;14.27;94.54;98023.03;5030446;28;20073;-74
2021/09/11 00:59:40;;;;;;;10.25;8.43;;;;;;;14.43;93.59;98031.69;5030464;28;20033;-75
2021/09/11 01:02:06;;;;;;;11.20;8.27;;;;;;;14.34;93.50;98028.09;5029118;28;20009;-74
2021/09/11 01:04:31;;;;;;;10.27;8.55;;;;;;;14.19;94.20;98032.03;5030429;28;20027;-74
2021/09/11 01:06:58;;;;;;;10.60;8.07;;;;;;;14.17;94.62;98039.00;5032998;28;20029;-75
2021/09/11 01:09:23;;;;;;;10.80;8.40;;;;;;;14.00;95.45;98033.41;5031356;28;20060;-76
2021/09/11 01:11:50;;;;;;;11.95;8.45;;;;;;;13.93;96.03;98034.69;5030078;28;20045;-74
2021/09/11 01:14:16;;;;;;;11.93;8.93;;;;;;;13.90;96.87;98032.56;5030344;28;20091;-74
2021/09/11 01:16:41;;;;;;;15.15;8.95;;;;;;;14.16;95.10;98032.69;5030362;28;20394;-75
2021/09/11 01:19:07;;;;;;;13.23;8.13;;;;;;;14.11;94.52;98030.06;5030169;28;20033;-75
2021/09/11 01:21:32;;;;;;;12.73;8.63;;;;;;;13.97;95.59;98028.56;5030068;28;20025;-75
2021/09/11 01:23:58;;;;;;;15.82;8.25;;;;;;;13.97;95.99;98028.56;5028671;28;20038;-74
2021/09/11 01:26:23;;;;;;;12.30;8.95;;;;;;;14.17;94.80;98023.31;5030068;28;20021;-75
2021/09/11 01:28:48;;;;;;;13.18;8.23;;;;;;;14.12;94.69;98022.63;5029906;28;20029;-75
2021/09/11 01:31:14;;;;;;;10.85;7.22;;;;;;;14.14;94.70;98034.13;5029679;28;20037;-74
2021/09/11 01:33:39;;;;;;;10.77;7.80;;;;;;;14.17;94.39;98033.50;5026866;28;20033;-74
2021/09/11 01:36:05;;;;;;;10.35;7.97;;;;;;;14.11;94.83;98027.31;5028859;28;20104;-75
2021/09/11 01:38:30;;;;;;;12.18;7.53;;;;;;;13.86;96.08;98028.81;5029424;28;20033;-75
2021/09/11 01:40:57;;;;;;;7.57;6.88;;;;;;;13.84;96.72;98033.00;5030502;28;20040;-74
2021/09/11 01:43:31;;;;;;;10.75;8.40;;;;;;;13.76;96.75;98034.56;5033111;28;20050;-74
2021/09/11 01:45:57;;;;;;;10.85;8.60;;;;;;;13.65;97.70;98038.72;5033380;28;20032;-74
2021/09/11 01:48:23;;;;;;;14.85;7.75;;;;;;;13.59;97.91;98025.41;5032992;28;20599;-74
2021/09/11 01:50:48;;;;;;;10.25;9.15;;;;;;;13.51;98.55;98024.19;5033499;28;20033;-73
2021/09/11 01:53:14;;;;;;;12.10;8.63;;;;;;;13.57;98.86;98031.19;5033825;28;20029;-77
2021/09/11 01:55:39;;;;;;;17.58;9.13;;;;;;;13.52;99.03;98031.34;5036200;28;20056;-75
2021/09/11 01:58:05;;;;;;;9.65;8.05;;;;;;;13.57;98.52;98030.38;5035639;28;20470;-75
2021/09/11 02:00:30;;;;;;;15.00;8.50;;;;;;;13.64;98.22;98031.56;5033189;28;20475;-75
2021/09/11 02:02:56;;;;;;;11.30;8.48;;;;;;;13.53;98.97;98029.41;5033094;28;20112;-75
2021/09/11 02:05:21;;;;;;;12.07;8.10;;;;;;;13.56;98.46;98029.59;5033016;28;20025;-75
2021/09/11 02:07:47;;;;;;;9.77;8.50;;;;;;;13.57;98.48;98033.94;5031385;28;20029;-75
2021/09/11 02:10:13;;;;;;;11.30;7.85;;;;;;;13.36;98.89;98027.31;5032704;28;20033;-75
2021/09/11 02:12:39;;;;;;;11.25;8.65;;;;;;;13.44;98.87;98015.56;5032548;28;20029;-75
2021/09/11 02:15:06;;;;;;;11.02;8.90;;;;;;;13.57;97.63;98022.94;5033279;28;20084;-74
2021/09/11 02:17:32;;;;;;;13.20;8.65;;;;;;;13.44;98.53;98023.81;5032870;28;20026;-74
2021/09/11 02:19:58;;;;;;;10.82;8.13;;;;;;;13.44;98.57;98017.53;5033193;28;20103;-74
2021/09/11 02:22:23;;;;;;;11.10;8.55;;;;;;;13.52;97.86;98016.78;5032790;28;20099;-75
2021/09/11 02:24:49;;;;;;;11.10;7.90;;;;;;;13.52;97.66;98027.78;5032949;28;20028;-74
2021/09/11 02:27:14;;;;;;;10.88;7.60;;;;;;;13.58;96.92;98032.00;5032515;28;20556;-74
2021/09/11 02:29:39;;;;;;;12.05;8.40;;;;;;;13.51;97.37;98032.44;5031856;28;20036;-79
2021/09/11 02:32:05;;;;;;;10.80;7.18;;;;;;;13.60;97.01;98032.50;5032659;28;20057;-74
2021/09/11 02:34:32;;;;;;;10.32;7.80;;;;;;;13.52;96.69;98028.59;5032311;28;20037;-74
2021/09/11 02:36:58;;;;;;;11.55;9.15;;;;;;;13.36;97.22;98027.31;5032415;28;20025;-75
2021/09/11 02:39:23;;;;;;;8.77;7.93;;;;;;;13.33;97.62;98028.78;5032281;28;20602;-74
2021/09/11 02:41:49;;;;;;;8.73;6.90;;;;;;;13.37;97.99;98042.69;5032109;28;20039;-74
2021/09/11 02:44:14;;;;;;;26.95;9.27;;;;;;;13.12;98.23;98032.31;5021487;28;20041;-74
2021/09/11 02:46:40;;;;;;;15.55;8.57;;;;;;;13.05;99.99;98029.94;5012385;28;20037;-74
2021/09/11 02:49:05;;;;;;;15.38;9.27;;;;;;;13.02;100.00;98038.00;5012332;28;20026;-74
2021/09/11 02:51:31;;;;;;;11.48;7.63;;;;;;;12.95;100.00;98034.84;5013487;28;20073;-75
2021/09/11 02:53:57;;;;;;;8.93;7.57;;;;;;;12.96;100.00;98037.31;5012918;28;20029;-75
2021/09/11 02:56:22;;;;;;;11.02;9.52;;;;;;;12.94;100.00;98025.00;5012885;28;20071;-75
2021/09/11 02:58:48;;;;;;;10.63;8.82;;;;;;;12.86;100.00;98023.78;5012813;28;20120;-75
2021/09/11 03:01:13;;;;;;;13.35;9.52;;;;;;;12.87;100.00;98028.94;5014018;28;20060;-75
2021/09/11 03:03:38;;;;;;;16.48;9.68;;;;;;;12.90;100.00;98022.06;5018797;28;20041;-73
2021/09/11 03:06:04;;;;;;;15.55;9.10;;;;;;;12.90;100.00;98028.34;5021161;28;20519;-74
2021/09/11 03:08:30;;;;;;;12.93;9.77;;;;;;;12.86;100.00;98032.84;5012623;28;20030;-75
2021/09/11 03:10:55;;;;;;;9.30;8.32;;;;;;;12.97;100.00;98035.38;5012204;28;20091;-76
2021/09/11 03:13:21;;;;;;;12.82;9.27;;;;;;;12.92;100.00;98022.56;5012219;28;20501;-75
2021/09/11 03:15:46;;;;;;;16.45;10.63;;;;;;;12.89;100.00;98032.22;5012229;28;20160;-75
2021/09/11 03:18:12;;;;;;;14.32;9.73;;;;;;;12.79;100.00;98024.19;5012259;28;20025;-74
2021/09/11 03:20:38;;;;;;;13.10;9.27;;;;;;;12.80;100.00;98023.09;5012084;28;20041;-74
2021/09/11 03:23:04;;;;;;;11.25;8.95;;;;;;;12.87;100.00;98022.69;5011612;28;20026;-75
2021/09/11 03:25:30;;;;;;;17.90;9.98;;;;;;;12.77;100.00;98022.91;5011984;28;20022;-73
2021/09/11 03:27:56;;;;;;;10.82;9.57;;;;;;;12.65;100.00;98019.88;5011911;28;20153;-78
2021/09/11 03:30:22;;;;;;;17.67;11.32;;;;;;;12.69;100.00;98015.38;5011591;28;20105;-74
2021/09/11 03:32:47;;;;;;;12.50;8.60;;;;;;;12.70;100.00;98023.31;5011627;28;20079;-75
2021/09/11 03:35:12;;;;;;;12.60;10.23;;;;;;;12.63;100.00;98017.41;5011716;28;20036;-75
2021/09/11 03:37:38;;;;;;;13.05;9.20;;;;;;;12.68;100.00;98025.56;5011756;28;20020;-75
2021/09/11 03:40:05;;;;;;;18.42;10.23;;;;;;;12.62;100.00;98021.31;4994267;28;20117;-76
2021/09/11 03:42:30;;;;;;;18.77;10.07;;;;;;;12.52;100.00;98017.94;4980270;28;20056;-75
2021/09/11 03:44:56;;;;;;;16.73;10.93;;;;;;;12.67;100.00;98015.69;5032523;28;20478;-74
2021/09/11 03:47:21;;;;;;;12.95;10.65;;;;;;;12.76;100.00;98016.59;5032318;28;20030;-74
2021/09/11 03:49:47;;;;;;;16.13;10.48;;;;;;;12.77;100.00;98007.25;5032075;28;20022;-74
2021/09/11 03:52:12;;;;;;;11.00;9.07;;;;;;;12.65;100.00;98017.13;5031485;28;20029;-77
2021/09/11 03:54:38;;;;;;;16.02;10.52;;;;;;;12.44;100.00;98013.97;5031477;28;20109;-75
2021/09/11 03:57:03;;;;;;;11.52;10.10;;;;;;;12.40;100.00;98018.47;5031313;28;20088;-75
2021/09/11 03:59:29;;;;;;;12.68;10.60;;;;;;;12.35;100.00;98021.28;5031413;28;20484;-75
2021/09/11 04:01:54;;;;;;;12.02;10.27;;;;;;;12.20;100.00;98014.19;5031419;28;20025;-75
2021/09/11 04:04:19;;;;;;;14.27;10.85;;;;;;;12.12;100.00;98006.66;5029164;28;20128;-75
2021/09/11 04:06:45;;;;;;;15.75;11.57;;;;;;;12.30;100.00;98021.41;5029718;28;20022;-76
2021/09/11 04:09:10;;;;;;;15.32;10.20;;;;;;;12.23;100.00;98012.75;5031109;28;20029;-78
2021/09/11 04:11:36;;;;;;;15.00;10.93;;;;;;;12.29;100.00;98023.34;5030907;28;20450;-75
2021/09/11 04:14:02;;;;;;;10.05;8.98;;;;;;;12.46;100.00;98017.25;5031240;28;20017;-75
2021/09/11 04:16:27;;;;;;;14.85;10.35;;;;;;;12.30;100.00;98014.00;5031137;28;20056;-75
2021/09/11 04:18:52;;;;;;;14.45;10.10;;;;;;;12.35;100.00;98016.63;5030910;28;20112;-76
2021/09/11 04:21:18;;;;;;;14.05;10.50;;;;;;;12.54;100.00;98021.19;5031367;28;20433;-75
2021/09/11 04:23:45;;;;;;;17.25;9.80;;;;;;;12.34;100.00;98012.25;5030640;28;20021;-75
2021/09/11 04:26:11;;;;;;;20.73;12.30;;;;;;;12.19;100.00;98006.25;5031344;28;20125;-75
2021/09/11 04:28:36;;;;;;;16.00;10.93;;;;;;;12.09;100.00;98018.22;5031282;28;20493;-76
2021/09/11 04:31:02;;;;;;;13.00;10.27;;;;;;;12.04;100.00;98021.09;5030869;28;20124;-76
2021/09/11 04:33:29;;;;;;;16.02;11.23;;;;;;;12.16;100.00;98017.84;5028356;28;20514;-75
2021/09/11 04:35:54;;;;;;;16.70;11.02;;;;;;;12.19;100.00;98022.72;5029512;28;20545;-76
2021/09/11 04:38:20;;;;;;;12.02;10.05;;;;;;;12.40;100.00;98026.69;5030973;28;20034;-76
2021/09/11 04:40:45;;;;;;;14.25;11.10;;;;;;;12.59;100.00;98024.63;5030961;28;20022;-76
2021/09/11 04:43:11;;;;;;;13.45;11.27;;;;;;;12.32;100.00;98027.41;5031355;28;20398;-76
2021/09/11 04:45:36;;;;;;;18.80;10.18;;;;;;;12.64;100.00;98027.28;5030966;28;20087;-76
2021/09/11 04:48:02;;;;;;;14.45;9.82;;;;;;;12.62;100.00;98020.47;5032727;28;20033;-76
2021/09/11 04:50:27;;;;;;;18.35;10.30;;;;;;;12.41;100.00;98030.22;5035939;28;20367;-77
2021/09/11 04:52:53;;;;;;;14.10;10.23;;;;;;;12.32;100.00;98021.91;5032600;28;20426;-76
2021/09/11 04:55:18;;;;;;;17.45;12.10;;;;;;;12.42;100.00;98029.94;5031591;28;20087;-77
2021/09/11 04:57:44;;;;;;;14.30;9.93;;;;;;;12.39;100.00;98024.25;5034754;28;20033;-76
2021/09/11 05:00:10;;;;;;;13.55;8.60;;;;;;;12.53;100.00;98041.53;5032008;28;20486;-75
2021/09/11 05:02:36;;;;;;;10.65;8.68;;;;;;;12.58;100.00;98036.75;5030915;28;20124;-76
2021/09/11 05:05:01;;;;;;;12.55;9.80;;;;;;;12.67;100.00;98043.13;5030802;28;20105;-75
2021/09/11 05:07:26;;;;;;;20.52;11.20;;;;;;;12.66;100.00;98041.50;5027250;28;20026;-76
2021/09/11 05:09:52;;;;;;;12.88;10.07;;;;;;;12.90;100.00;98055.00;5021566;28;20483;-76
2021/09/11 05:12:18;;;;;;;11.75;9.90;;;;;;;12.98;99.37;98047.97;5019884;28;20025;-75
2021/09/11 05:14:43;;;;;;;16.30;9.60;;;;;;;13.06;98.64;98047.25;5011368;28;20033;-75
2021/09/11 05:17:09;;;;;;;18.08;10.13;;;;;;;13.09;98.43;98041.16;4995076;28;20034;-76
2021/09/11 05:19:39;;;;;;;11.43;9.80;;;;;;;13.23;97.26;98053.72;4994423;28;20038;-77
2021/09/11 05:22:07;;;;;;;15.48;9.20;;;;;;;13.17;97.66;98054.97;4992929;28;20030;-76
2021/09/11 05:24:32;;;;;;;12.02;8.60;;;;;;;13.22;97.17;98054.03;4990679;28;20030;-75
2021/09/11 05:26:58;;;;;;;13.65;9.23;;;;;;;13.25;97.04;98061.66;4990253;28;20022;-75
2021/09/11 05:29:23;;;;;;;10.68;8.63;;;;;;;13.15;97.41;98059.97;4990427;28;20475;-75
2021/09/11 05:31:49;;;;;;;12.00;9.55;;;;;;;13.20;97.34;98057.09;4972771;28;20049;-77
2021/09/11 05:34:14;;;;;;;9.98;8.75;;;;;;;13.38;96.38;98063.53;4990413;28;20026;-75
2021/09/11 05:36:40;;;;;;;15.50;9.38;;;;;;;13.74;94.38;98069.00;4990213;28;20081;-76
2021/09/11 05:39:05;;;;;;;13.40;10.25;;;;;;;13.73;94.43;98070.94;5009369;28;20062;-74
2021/09/11 05:41:31;;;;;;;15.23;9.88;;;;;;;13.56;94.88;98061.75;5010109;28;20042;-76
2021/09/11 05:43:56;;;;;;;10.63;9.25;;;;;;;13.73;94.54;98064.63;5023219;28;20478;-74
2021/09/11 05:46:21;;;;;;;19.48;10.80;;;;;;;13.73;94.15;98068.19;5029184;28;20032;-77
2021/09/11 05:48:47;;;;;;;31.02;19.42;;;;;;;13.92;93.72;98074.31;5026452;28;20017;-75
2021/09/11 05:51:12;;;;;;;23.10;13.07;;;;;;;13.83;93.51;98073.44;5029747;28;20037;-75
2021/09/11 05:53:38;;;;;;;18.77;12.15;;;;;;;13.90;93.40;98084.00;5029736;28;20059;-75
2021/09/11 05:56:03;;;;;;;30.70;18.45;;;;;;;13.95;92.72;98073.66;5029648;28;20029;-75
2021/09/11 05:58:32;;;;;;;10.48;9.35;;;;;;;14.14;91.35;98072.63;5029617;28;20091;-74
2021/09/11 06:00:57;;;;;;;16.30;9.27;;;;;;;14.03;91.99;98057.53;5029381;28;20040;-74
2021/09/11 06:03:23;;;;;;;12.73;8.95;;;;;;;14.50;89.71;98061.53;5029299;28;20025;-74
2021/09/11 06:05:49;;;;;;;11.55;8.70;;;;;;;14.54;88.99;98055.03;5029605;28;20025;-73
2021/09/11 06:08:14;;;;;;;15.45;9.15;;;;;;;14.51;89.06;98063.94;5029590;28;20134;-74
2021/09/11 06:10:40;;;;;;;11.93;8.30;;;;;;;14.53;89.04;98071.91;5030458;28;20044;-75
2021/09/11 06:13:06;;;;;;;16.63;9.95;;;;;;;14.68;87.95;98069.53;5030423;28;20034;-75
2021/09/11 06:15:33;;;;;;;9.70;8.68;;;;;;;15.01;86.74;98069.91;5031891;28;20037;-76
2021/09/11 06:17:58;;;;;;;15.00;10.98;;;;;;;14.82;87.36;98072.94;5030055;28;20382;-75
2021/09/11 06:20:23;;;;;;;13.00;10.18;;;;;;;14.86;86.95;98068.44;5029587;28;20029;-74
2021/09/11 06:22:49;;;;;;;14.98;9.10;;;;;;;15.30;84.82;98074.81;5028963;28;20025;-74
2021/09/11 06:25:14;;;;;;;12.38;9.27;;;;;;;15.11;85.44;98066.88;5028040;28;20040;-77
2021/09/11 06:27:41;;;;;;;16.50;10.43;;;;;;;15.25;85.00;98075.81;5030985;28;20033;-78
2021/09/11 06:30:16;;;;;;;17.20;11.77;;;;;;;15.31;84.54;98073.69;5032285;28;20486;-76
2021/09/11 06:32:41;;;;;;;22.88;14.35;;;;;;;15.43;84.05;98074.69;5032767;28;20124;-75
2021/09/11 06:35:07;;;;;;;11.82;10.05;;;;;;;15.58;83.13;98072.59;5031244;28;20389;-75
2021/09/11 06:37:33;;;;;;;15.23;10.85;;;;;;;15.57;82.41;98059.97;5032549;28;20032;-75
2021/09/11 06:39:59;;;;;;;13.38;9.27;;;;;;;15.84;81.37;98062.38;5032726;28;20025;-75
2021/09/11 06:42:25;;;;;;;16.10;8.57;;;;;;;16.04;80.56;98059.72;5031685;28;20493;-75
2021/09/11 06:44:50;;;;;;;19.23;9.52;;;;;;;15.81;80.86;98060.25;5029708;28;20030;-74
2021/09/11 06:47:19;;;;;;;11.88;8.48;;;;;;;16.21;79.74;98074.63;5032830;28;20029;-75
2021/09/11 06:49:44;;;;;;;11.65;9.38;;;;;;;16.11;79.26;98074.97;5032680;28;20493;-76
2021/09/11 06:52:11;;;;;;;12.18;8.40;;;;;;;16.29;79.41;98076.56;5037922;28;20026;-75
2021/09/11 06:54:37;;;;;;;11.90;8.80;;;;;;;16.14;79.83;98071.53;5032863;28;20452;-77
2021/09/11 06:57:05;;;;;;;17.17;9.52;;;;;;;15.98;80.37;98080.34;5026877;28;20044;-75
2021/09/11 06:59:31;;;;;;;13.00;9.50;;;;;;;16.25;79.01;98083.88;5030781;28;20033;-74
2021/09/11 07:01:57;;;;;;;14.40;9.57;;;;;;;16.58;77.72;98074.69;5031931;28;20028;-73
2021/09/11 07:04:22;;;;;;;11.80;8.27;;;;;;;16.99;75.38;98087.00;5029810;28;20390;-73
2021/09/11 07:06:48;;;;;;;10.57;8.63;;;;;;;17.34;73.84;98085.63;5031331;28;20386;-72
2021/09/11 07:09:13;;;;;;;12.30;8.52;;;;;;;17.65;72.26;98085.28;5032757;28;20018;-75
2021/09/11 07:11:38;;;;;;;13.32;7.68;;;;;;;18.33;69.46;98077.44;5030935;28;20057;-74
2021/09/11 07:14:04;;;;;;;15.80;9.32;;;;;;;18.12;70.01;98080.28;5031255;28;20025;-74
2021/09/11 07:16:32;;;;;;;14.45;9.80;;;;;;;18.41;69.65;98084.84;5030941;28;20018;-73
2021/09/11 07:18:58;;;;;;;12.15;8.88;;;;;;;18.88;65.92;98075.00;5031170;28;20382;-74
2021/09/11 07:21:23;;;;;;;14.38;8.65;;;;;;;18.95;66.12;98078.00;5031167;28;20025;-74
2021/09/11 07:23:49;;;;;;;15.95;9.40;;;;;;;19.32;64.39;98075.22;5031053;28;20035;-74
2021/09/11 07:26:21;;;;;;;16.48;9.43;;;;;;;18.94;65.40;98075.59;5030606;28;20026;-74
2021/09/11 07:28:48;;;;;;;13.82;9.57;;;;;;;18.33;67.64;98077.44;5031438;28;20029;-74
2021/09/11 07:31:14;;;;;;;18.23;9.32;;;;;;;18.77;67.52;98079.38;5030127;28;21544;-75
2021/09/11 07:33:40;;;;;;;16.95;8.52;;;;;;;19.61;64.27;98086.03;5033911;28;20025;-74
2021/09/11 07:36:06;;;;;;;12.63;8.57;;;;;;;20.11;62.51;98079.97;5032359;28;20104;-77
2021/09/11 07:38:32;;;;;;;10.27;7.88;;;;;;;20.74;59.65;98091.97;5029935;28;20025;-74
2021/09/11 07:40:57;;;;;;;9.63;8.15;;;;;;;20.24;61.04;98093.41;5030647;28;20021;-77
2021/09/11 07:43:23;;;;;;;10.65;7.93;;;;;;;19.97;61.60;98085.09;5027322;28;20449;-78
2021/09/11 07:45:48;;;;;;;11.45;7.80;;;;;;;19.91;62.81;98097.63;5022445;28;20105;-79
2021/09/11 07:48:14;;;;;;;10.43;8.27;;;;;;;20.66;60.03;98091.00;5020320;28;20026;-81
2021/09/11 07:50:39;;;;;;;14.32;7.90;;;;;;;21.28;58.07;98094.94;5004522;28;20053;-80
2021/09/11 07:53:05;;;;;;;10.70;7.55;;;;;;;21.38;58.06;98104.72;5001073;28;20018;-79
2021/09/11 07:55:32;;;;;;;13.45;8.10;;;;;;;20.98;58.24;98102.94;5020725;28;20034;-84
2021/09/11 07:57:57;;;;;;;11.60;9.57;;;;;;;21.32;56.99;98102.22;5022800;28;20028;-78
2021/09/11 08:00:24;;;;;;;11.50;8.45;;;;;;;21.35;57.42;98104.28;5021379;28;20116;-78
2021/09/11 08:02:50;;;;;;;8.98;7.10;;;;;;;22.74;54.14;98100.41;5022990;28;20034;-78
2021/09/11 08:05:15;;;;;;;11.60;7.38;;;;;;;24.89;47.75;98102.63;5019627;28;20018;-78
2021/09/11 08:07:41;;;;;;;10.50;6.90;;;;;;;25.34;45.49;98106.22;5013946;28;20029;-82
2021/09/11 08:10:07;;;;;;;13.15;6.53;;;;;;;25.84;44.28;98102.56;4973242;28;20033;-85
2021/09/11 08:12:33;;;;;;;10.93;6.75;;;;;;;24.98;46.15;98100.31;5024204;28;20032;-82
2021/09/11 08:14:59;;;;;;;11.15;8.07;;;;;;;23.53;48.98;98096.94;5037691;28;20067;-80
2021/09/11 08:17:24;;;;;;;9.80;6.75;;;;;;;24.59;47.61;98109.50;5027501;28;20030;-78
2021/09/11 08:19:51;;;;;;;10.65;7.55;;;;;;;24.58;47.14;98111.50;5023835;28;20028;-77
2021/09/11 08:22:17;;;;;;;12.93;8.00;;;;;;;24.45;46.59;98105.34;5021432;28;20096;-77
2021/09/11 08:24:43;;;;;;;10.10;7.45;;;;;;;25.04;45.72;98106.34;5018956;28;20608;-79
2021/09/11 08:27:09;;;;;;;10.30;7.22;;;;;;;25.26;45.27;98108.16;5005683;28;20053;-79
2021/09/11 08:29:35;;;;;;;13.55;7.60;;;;;;;24.49;46.21;98103.41;5023627;28;20371;-80
2021/09/11 08:32:02;;;;;;;12.15;7.53;;;;;;;24.06;47.27;98103.25;5008375;28;20037;-76
2021/09/11 08:34:27;;;;;;;10.30;7.53;;;;;;;23.50;48.95;98092.09;5020490;28;20032;-81
2021/09/11 08:36:53;;;;;;;11.15;7.95;;;;;;;23.36;49.49;98087.91;5017552;28;20026;-81
2021/09/11 08:39:18;;;;;;;11.40;7.65;;;;;;;23.82;47.79;98087.75;5003585;28;20029;-84
2021/09/11 08:41:44;;;;;;;9.65;7.13;;;;;;;23.02;49.54;98093.72;5026182;28;20478;-83
2021/09/11 08:44:10;;;;;;;11.32;7.13;;;;;;;22.75;50.52;98092.84;5031937;28;20050;-83
2021/09/11 08:46:45;;;;;;;46.65;33.92;;;;;;;22.37;51.53;98088.94;5044113;28;20030;-83
2021/09/11 08:49:11;;;;;;;12.52;10.00;;;;;;;22.15;51.64;98095.28;5041827;28;20022;-81
2021/09/11 08:51:38;;;;;;;16.85;7.63;;;;;;;21.93;52.33;98104.38;5033214;28;20136;-82
2021/09/11 08:54:03;;;;;;;17.35;8.07;;;;;;;23.16;49.83;98093.94;5033848;28;20033;-80
2021/09/11 08:56:37;;;;;;;14.70;7.97;;;;;;;24.01;47.88;98093.22;5031128;28;20040;-83
2021/09/11 08:59:10;;;;;;;8.57;6.72;;;;;;;24.03;46.93;98090.84;5033706;28;20075;-84
2021/09/11 09:01:35;;;;;;;10.68;7.40;;;;;;;23.79;47.52;98078.16;5031671;28;20025;-84
2021/09/11 09:04:01;;;;;;;12.38;7.35;;;;;;;23.96;46.77;98083.16;5032198;28;20099;-83
2021/09/11 09:06:29;;;;;;;12.07;7.22;;;;;;;23.94;47.42;98085.53;5038355;28;20084;-84
2021/09/11 09:08:59;;;;;;;10.93;7.07;;;;;;;24.34;46.33;98076.44;5037893;28;20025;-84
2021/09/11 09:11:30;;;;;;;16.00;5.95;;;;;;;24.44;45.94;98070.16;5036364;28;20038;-83
2021/09/11 09:14:01;;;;;;;15.50;6.75;;;;;;;24.46;45.79;98078.19;5036782;28;20604;-84
2021/09/11 09:16:36;;;;;;;10.65;7.30;;;;;;;24.53;46.15;98083.84;5032256;28;20078;-79
2021/09/11 09:19:20;;;;;;;9.87;4.47;;;;;;;24.97;44.77;98075.50;5031448;28;20026;-83
2021/09/11 09:21:48;;;;;;;13.32;7.00;;;;;;;24.42;45.49;98072.56;5032434;28;20274;-82
2021/09/11 09:24:25;;;;;;;14.73;6.93;;;;;;;24.73;45.14;98070.44;5031969;28;20482;-83
2021/09/11 09:26:59;;;;;;;8.98;6.47;;;;;;;24.08;46.59;98073.75;5033174;28;20029;-83
2021/09/11 09:29:25;;;;;;;10.48;6.28;;;;;;;24.94;44.88;98073.47;5032755;28;20021;-83
2021/09/11 09:31:56;;;;;;;9.52;6.55;;;;;;;25.16;44.33;98071.63;5030920;28;20044;-80
2021/09/11 09:34:32;;;;;;;8.20;5.45;;;;;;;24.31;45.24;98073.59;5031567;28;20033;-81
2021/09/11 09:36:59;;;;;;;12.40;5.78;;;;;;;24.67;44.79;98060.81;5033076;28;20034;-81
2021/09/11 09:39:24;;;;;;;9.63;5.22;;;;;;;23.96;46.24;98065.59;5030572;28;20022;-83
2021/09/11 09:41:52;;;;;;;9.38;5.53;;;;;;;24.34;45.53;98062.47;5026883;28;20064;-82
2021/09/11 09:44:22;;;;;;;8.32;5.43;;;;;;;24.17;45.63;98062.28;5031739;28;20038;-79
2021/09/11 09:46:50;;;;;;;12.98;5.93;;;;;;;24.69;44.54;98058.41;5035743;28;20032;-82
2021/09/11 09:49:18;;;;;;;9.95;5.75;;;;;;;24.83;44.12;98064.19;5040884;28;20026;-83
2021/09/11 09:51:43;;;;;;;12.23;6.10;;;;;;;24.79;44.34;98057.72;5032410;28;20029;-82
2021/09/11 09:54:09;;;;;;;10.82;5.60;;;;;;;25.16;43.43;98052.84;5029954;28;20470;-79
2021/09/11 09:56:35;;;;;;;10.95;4.85;;;;;;;24.94;43.51;98040.69;5031300;28;20482;-83
2021/09/11 09:59:00;;;;;;;11.73;6.50;;;;;;;24.95;42.95;98047.91;5029665;28;20024;-77
2021/09/11 10:01:27;;;;;;;9.48;4.60;;;;;;;25.30;43.16;98050.16;5031701;28;20033;-79
2021/09/11 10:03:53;;;;;;;6.32;4.90;;;;;;;25.76;42.57;98050.44;5035644;28;20033;-82
2021/09/11 10:06:26;;;;;;;18.80;6.00;;;;;;;25.49;42.32;98063.13;5036477;28;20025;-82
2021/09/11 10:09:07;;;;;;;11.43;5.10;;;;;;;25.96;41.46;98056.56;5036079;28;20083;-82
2021/09/11 10:11:44;;;;;;;8.77;4.60;;;;;;;26.24;41.21;98064.28;5033587;28;20033;-78
2021/09/11 10:14:12;;;;;;;7.93;5.03;;;;;;;26.41;40.49;98052.31;5035559;28;20029;-81
2021/09/11 10:16:42;;;;;;;8.90;4.28;;;;;;;26.37;40.13;98055.13;5034378;28;20029;-79
2021/09/11 10:19:19;;;;;;;11.10;6.05;;;;;;;26.35;40.21;98054.69;5036071;28;20021;-80
2021/09/11 10:21:45;;;;;;;;;;;;;;;25.19;42.07;98038.06;5035864;28;20026;-81
2021/09/11 10:24:13;;;;;;;;;;;;;;;25.41;41.03;98039.81;5030267;28;19925;-81
2021/09/11 10:26:46;;;;;;;5.63;3.65;;;;;;;25.57;40.78;98036.72;5034202;28;19913;-80
2021/09/11 10:29:49;;;;;;;7.90;4.28;;;;;;;25.64;40.55;98021.97;5032509;28;20025;-80
2021/09/11 10:32:17;;;;;;;5.25;4.00;;;;;;;25.65;40.12;98026.38;5035768;28;20053;-86
2021/09/11 10:35:04;;;;;;;6.50;3.83;;;;;;;26.05;39.25;98028.94;5037156;28;20084;-85
2021/09/11 10:37:30;;;;;;;;;;;;;;;26.05;39.01;98020.53;5037229;28;20029;-81
2021/09/11 10:40:25;;;;;;;9.07;4.28;;;;;;;26.30;39.13;98024.25;5038544;28;19923;-84
2021/09/11 10:43:11;;;;;;;5.35;4.07;;;;;;;26.43;38.01;98017.06;5054420;28;20128;-81
2021/09/11 10:45:46;;;;;;;7.43;3.88;;;;;;;26.16;37.80;98024.19;5035356;28;20030;-81
2021/09/11 10:48:30;;;;;;;5.25;3.58;;;;;;;26.08;38.00;98022.53;5036165;28;20033;-84
2021/09/11 10:50:56;;;;;;;6.35;3.90;;;;;;;26.35;37.42;98015.41;5040112;28;20048;-84
2021/09/11 10:53:23;;;;;;;7.85;4.05;;;;;;;26.24;37.53;98020.22;5034514;28;20029;-85
2021/09/11 10:55:49;;;;;;;4.78;3.33;;;;;;;26.00;37.59;98020.94;5035095;28;20025;-82
2021/09/11 10:58:25;;;;;;;6.80;3.40;;;;;;;25.93;37.91;98016.09;5033634;28;20025;-83
2021/09/11 11:01:01;;;;;;;4.70;3.25;;;;;;;26.58;37.08;98015.88;5034833;28;20095;-83
2021/09/11 11:03:27;;;;;;;6.13;3.70;;;;;;;26.16;37.08;98012.97;5034904;28;20029;-77
2021/09/11 11:06:17;;;;;;;4.80;3.63;;;;;;;26.49;35.93;98011.84;5034182;28;20112;-83
2021/09/11 11:12:07;;;;;;;4.95;3.58;;;;;;;27.25;34.47;97989.78;5036828;28;20099;-83
2021/09/11 11:14:37;;;;;;;9.00;3.50;;;;;;;27.49;34.32;98000.19;5036399;28;20084;-81
2021/09/11 11:17:03;;;;;;;10.77;3.47;;;;;;;27.32;34.39;97998.19;5035473;28;20033;-84
2021/09/11 11:19:32;;;;;;;4.78;3.15;;;;;;;27.31;34.52;97996.59;5035655;28;20048;-84
2021/09/11 11:22:04;;;;;;;4.53;3.47;;;;;;;27.33;34.59;97985.75;5036344;28;20060;-85
2021/09/11 11:24:34;;;;;;;9.18;4.15;;;;;;;26.95;36.02;97969.75;5035378;28;20021;-82
2021/09/11 11:27:03;;;;;;;3.78;3.05;;;;;;;27.28;34.81;97980.56;5037548;28;20244;-84